createdAt,value
2022-12-27T00:00:42.662Z,70.11
2022-12-27T00:03:10.458Z,69.46
2022-12-27T00:05:38.019Z,69.26
2022-12-27T00:08:05.650Z,69.42
2022-12-27T00:10:33.173Z,69.89
2022-12-27T00:13:00.703Z,69.41
2022-12-27T00:15:29.890Z,69.80
2022-12-27T00:17:57.451Z,68.91
2022-12-27T00:20:25.042Z,68.77
2022-12-27T00:22:52.567Z,70.02
2022-12-27T00:25:20.086Z,69.50
2022-12-27T00:27:47.939Z,69.12
2022-12-27T00:30:15.568Z,69.24
2022-12-27T00:32:44.483Z,67.49
2022-12-27T00:35:11.994Z,68.89
2022-12-27T00:37:39.506Z,68.94
2022-12-27T00:40:08.142Z,69.08
2022-12-27T00:42:35.742Z,68.74
2022-12-27T00:45:03.459Z,69.04
2022-12-27T00:47:31.032Z,69.82
2022-12-27T00:50:00.512Z,70.12
2022-12-27T00:52:29.300Z,69.60
2022-12-27T00:54:56.977Z,68.76
2022-12-27T00:57:24.670Z,69.61
2022-12-27T00:59:52.392Z,69.43
2022-12-27T01:02:20.215Z,69.70
2022-12-27T01:04:47.798Z,68.94
2022-12-27T01:07:16.754Z,69.24
2022-12-27T01:09:44.634Z,70.05
2022-12-27T01:12:12.654Z,69.13
2022-12-27T01:14:40.262Z,68.89
2022-12-27T01:17:08.094Z,69.40
2022-12-27T01:19:36.710Z,69.75
2022-12-27T01:22:04.732Z,69.08
2022-12-27T01:24:34.495Z,69.22
2022-12-27T01:27:02.168Z,70.37
2022-12-27T01:29:29.699Z,69.66
2022-12-27T01:31:57.340Z,69.60
2022-12-27T01:34:25.770Z,69.48
2022-12-27T01:36:53.359Z,69.89
2022-12-27T01:39:21.053Z,69.78
2022-12-27T01:42:07.632Z,69.98
2022-12-27T01:44:54.540Z,69.17
2022-12-27T01:47:30.482Z,70.29
2022-12-27T01:50:05.822Z,69.52
2022-12-27T01:52:38.733Z,69.84
2022-12-27T01:55:13.772Z,70.23
2022-12-27T01:57:43.234Z,70.38
2022-12-27T02:00:12.050Z,70.19
2022-12-27T02:02:40.191Z,70.26
2022-12-27T02:05:10.555Z,70.33
2022-12-27T02:07:48.320Z,70.89
2022-12-27T02:10:16.697Z,70.97
2022-12-27T02:12:45.866Z,70.47
2022-12-27T02:15:13.476Z,70.84
2022-12-27T02:17:41.157Z,70.68
2022-12-27T02:20:13.937Z,70.89
2022-12-27T02:23:18.544Z,70.14
2022-12-27T02:26:06.730Z,70.57
2022-12-27T02:28:57.329Z,70.87
2022-12-27T02:31:35.073Z,71.15
2022-12-27T02:34:09.861Z,71.08
2022-12-27T02:36:40.151Z,71.63
2022-12-27T02:39:07.656Z,71.37
2022-12-27T02:41:54.550Z,71.08
2022-12-27T02:44:43.546Z,71.30
2022-12-27T02:47:37.413Z,70.96
2022-12-27T02:50:23.905Z,70.73
2022-12-27T02:53:07.812Z,70.34
2022-12-27T02:56:04.134Z,71.50
2022-12-27T02:58:41.554Z,70.88
2022-12-27T03:01:39.787Z,71.56
2022-12-27T03:04:23.291Z,71.33
2022-12-27T03:07:07.150Z,71.04
2022-12-27T03:10:14.082Z,71.64
2022-12-27T03:13:06.193Z,71.66
2022-12-27T03:15:56.561Z,71.54
2022-12-27T03:18:36.858Z,71.42
2022-12-27T03:21:25.286Z,71.56
2022-12-27T03:24:13.765Z,71.63
2022-12-27T03:26:44.900Z,71.71
2022-12-27T03:29:32.119Z,72.13
2022-12-27T03:32:21.410Z,71.97
2022-12-27T03:34:54.973Z,71.63
2022-12-27T03:37:45.345Z,71.78
2022-12-27T03:40:19.964Z,71.85
2022-12-27T03:43:10.629Z,72.26
2022-12-27T03:46:16.391Z,72.10
2022-12-27T03:49:05.552Z,72.31
2022-12-27T03:51:39.055Z,72.44
2022-12-27T03:54:11.705Z,72.14
2022-12-27T03:56:41.869Z,71.23
2022-12-27T03:59:13.159Z,71.80
2022-12-27T04:01:42.443Z,72.36
2022-12-27T04:04:10.447Z,72.16
2022-12-27T04:06:39.371Z,72.46
2022-12-27T04:09:24.807Z,71.89
2022-12-27T04:12:10.387Z,72.01
2022-12-27T04:14:56.009Z,72.70
2022-12-27T04:17:41.913Z,72.40
2022-12-27T04:20:27.918Z,72.86
2022-12-27T04:23:15.050Z,72.48
2022-12-27T04:26:00.715Z,72.46
2022-12-27T04:28:46.835Z,72.28
2022-12-27T04:31:33.193Z,72.24
2022-12-27T04:34:18.480Z,72.39
2022-12-27T04:36:46.283Z,72.32
2022-12-27T04:39:15.621Z,72.07
2022-12-27T04:42:04.089Z,72.01
2022-12-27T04:44:58.065Z,71.13
2022-12-27T04:47:44.914Z,72.60
2022-12-27T04:50:35.917Z,72.49
2022-12-27T04:53:20.949Z,72.26
2022-12-27T04:55:49.945Z,71.96
2022-12-27T04:58:17.908Z,72.38
2022-12-27T05:01:04.282Z,72.63
2022-12-27T05:03:34.495Z,72.98
2022-12-27T05:06:03.129Z,72.37
2022-12-27T05:08:49.340Z,72.23
2022-12-27T05:11:35.999Z,72.75
2022-12-27T05:14:07.188Z,72.88
2022-12-27T05:16:37.052Z,72.52
2022-12-27T05:19:09.535Z,72.75
2022-12-27T05:21:37.943Z,72.69
2022-12-27T05:24:24.363Z,72.77
2022-12-27T05:26:57.129Z,71.80
2022-12-27T05:29:24.709Z,72.24
2022-12-27T05:31:52.625Z,72.53
2022-12-27T05:34:20.131Z,71.94
2022-12-27T05:36:47.788Z,71.88
2022-12-27T05:39:15.381Z,71.87
2022-12-27T05:41:42.942Z,71.87
2022-12-27T05:44:12.021Z,71.79
2022-12-27T05:46:40.399Z,71.79
2022-12-27T05:49:08.411Z,71.71
2022-12-27T05:51:37.092Z,72.12
2022-12-27T05:54:04.986Z,71.89
2022-12-27T05:56:35.575Z,72.39
2022-12-27T05:59:03.137Z,72.21
2022-12-27T06:01:32.437Z,72.30
2022-12-27T06:04:00.315Z,72.09
2022-12-27T06:06:28.278Z,72.55
2022-12-27T06:08:56.524Z,71.89
2022-12-27T06:11:24.467Z,72.25
2022-12-27T06:13:54.313Z,72.01
2022-12-27T06:16:23.453Z,72.12
2022-12-27T06:18:52.274Z,72.50
2022-12-27T06:21:22.419Z,72.11
2022-12-27T06:23:51.189Z,71.99
2022-12-27T06:26:21.361Z,72.77
2022-12-27T06:28:50.419Z,72.78
2022-12-27T06:31:19.544Z,72.22
2022-12-27T06:33:47.898Z,72.74
2022-12-27T06:36:19.680Z,72.48
2022-12-27T06:38:47.775Z,72.61
2022-12-27T06:41:18.243Z,72.16
2022-12-27T06:43:46.925Z,72.27
2022-12-27T06:46:18.166Z,72.60
2022-12-27T06:48:47.510Z,72.80
2022-12-27T06:51:18.767Z,71.96
2022-12-27T06:53:50.070Z,72.55
2022-12-27T06:56:19.514Z,72.53
2022-12-27T06:58:48.469Z,73.04
2022-12-27T07:01:18.766Z,72.88
2022-12-27T07:03:49.861Z,72.62
2022-12-27T07:06:19.650Z,72.36
2022-12-27T07:08:47.586Z,72.72
2022-12-27T07:11:17.100Z,72.47
2022-12-27T07:13:48.271Z,72.57
2022-12-27T07:16:18.336Z,72.92
2022-12-27T07:18:48.372Z,72.33
2022-12-27T07:21:21.535Z,72.47
2022-12-27T07:23:50.446Z,73.02
2022-12-27T07:26:20.231Z,72.42
2022-12-27T07:28:48.067Z,72.85
2022-12-27T07:31:18.494Z,72.72
2022-12-27T07:33:46.517Z,72.96
2022-12-27T07:36:16.336Z,72.82
2022-12-27T07:38:46.026Z,72.77
2022-12-27T07:41:14.795Z,72.53
2022-12-27T07:43:44.737Z,72.63
2022-12-27T07:46:15.057Z,72.76
2022-12-27T07:48:43.896Z,71.92
2022-12-27T07:51:11.998Z,72.30
2022-12-27T07:53:39.931Z,72.34
2022-12-27T07:56:11.200Z,71.92
2022-12-27T07:58:40.304Z,72.47
2022-12-27T08:01:10.234Z,72.37
2022-12-27T08:03:38.795Z,72.46
2022-12-27T08:06:08.127Z,71.69
2022-12-27T08:08:40.055Z,72.24
2022-12-27T08:11:09.456Z,72.29
2022-12-27T08:13:37.436Z,72.49
2022-12-27T08:16:05.887Z,72.10
2022-12-27T08:18:34.522Z,72.37
2022-12-27T08:21:02.134Z,72.35
2022-12-27T08:23:29.845Z,71.93
2022-12-27T08:25:57.574Z,71.60
2022-12-27T08:28:28.212Z,72.11
2022-12-27T08:30:55.838Z,71.82
2022-12-27T08:33:24.982Z,71.78
2022-12-27T08:35:54.316Z,71.46
2022-12-27T08:38:22.448Z,71.77
2022-12-27T08:40:50.232Z,71.98
2022-12-27T08:43:18.001Z,72.10
2022-12-27T08:45:47.068Z,71.75
2022-12-27T08:48:15.590Z,72.11
2022-12-27T08:50:43.241Z,72.43
2022-12-27T08:53:11.709Z,72.36
2022-12-27T08:55:39.361Z,72.44
2022-12-27T08:58:13.961Z,72.61
2022-12-27T09:00:43.538Z,72.29
2022-12-27T09:03:12.590Z,71.73
2022-12-27T09:05:42.053Z,72.38
2022-12-27T09:08:10.352Z,72.29
2022-12-27T09:10:38.098Z,72.40
2022-12-27T09:13:05.707Z,71.79
2022-12-27T09:15:33.629Z,71.94
2022-12-27T09:18:03.141Z,71.99
2022-12-27T09:20:32.575Z,71.48
2022-12-27T09:23:00.800Z,72.11
2022-12-27T09:25:28.566Z,71.72
2022-12-27T09:27:56.174Z,71.68
2022-12-27T09:30:23.900Z,72.17
2022-12-27T09:32:51.501Z,71.79
2022-12-27T09:35:19.110Z,71.94
2022-12-27T09:37:48.008Z,71.67
2022-12-27T09:40:17.295Z,72.28
2022-12-27T09:43:09.477Z,71.82
2022-12-27T09:45:45.733Z,71.93
2022-12-27T09:48:17.330Z,72.64
2022-12-27T09:50:50.785Z,71.26
2022-12-27T09:53:25.934Z,72.13
2022-12-27T09:55:58.136Z,72.11
2022-12-27T09:58:41.466Z,71.44
2022-12-27T10:01:25.163Z,72.02
2022-12-27T10:03:53.352Z,71.85
2022-12-27T10:06:46.556Z,72.32
2022-12-27T10:09:33.030Z,71.94
2022-12-27T10:12:10.870Z,72.09
2022-12-27T10:14:59.877Z,72.45
2022-12-27T10:17:43.348Z,70.64
2022-12-27T10:20:24.951Z,71.11
2022-12-27T10:22:55.491Z,69.32
2022-12-27T10:25:26.739Z,69.68
2022-12-27T10:27:59.743Z,69.62
2022-12-27T10:30:29.555Z,70.40
2022-12-27T10:32:57.475Z,70.41
2022-12-27T10:35:26.264Z,71.02
2022-12-27T10:37:54.625Z,71.22
2022-12-27T10:40:31.047Z,70.73
2022-12-27T10:43:05.092Z,65.30
2022-12-27T10:45:36.292Z,66.57
2022-12-27T10:48:19.717Z,67.91
2022-12-27T10:51:00.313Z,67.24
2022-12-27T10:53:35.005Z,66.11
2022-12-27T10:56:14.595Z,65.66
2022-12-27T10:58:45.802Z,67.69
2022-12-27T11:01:19.225Z,67.37
2022-12-27T11:03:47.344Z,67.61
2022-12-27T11:06:24.790Z,66.03
2022-12-27T11:08:57.990Z,66.78
2022-12-27T11:11:38.055Z,67.06
2022-12-27T11:14:25.229Z,67.35
2022-12-27T11:17:00.343Z,66.91
2022-12-27T11:19:35.578Z,66.66
2022-12-27T11:22:08.173Z,67.49
2022-12-27T11:24:48.565Z,67.24
2022-12-27T11:27:27.996Z,67.03
2022-12-27T11:29:59.934Z,66.31
2022-12-27T11:32:28.551Z,67.13
2022-12-27T11:34:57.774Z,67.42
2022-12-27T11:37:31.985Z,68.00
2022-12-27T11:40:15.938Z,67.26
2022-12-27T11:43:15.343Z,67.26
2022-12-27T11:45:55.464Z,67.65
2022-12-27T11:48:51.257Z,67.55
2022-12-27T11:56:11.199Z,67.68
2022-12-27T12:02:58.692Z,67.95
2022-12-27T12:06:14.525Z,67.41
2022-12-27T12:13:28.841Z,67.80
2022-12-27T12:16:42.152Z,67.61
2022-12-27T12:19:22.839Z,68.76
2022-12-27T12:22:06.437Z,68.38
2022-12-27T12:24:42.882Z,67.92
2022-12-27T12:27:43.844Z,67.47
2022-12-27T12:30:48.264Z,67.72
2022-12-27T12:33:39.668Z,67.75
2022-12-27T12:36:27.489Z,67.89
2022-12-27T12:39:02.821Z,67.86
2022-12-27T12:41:54.861Z,68.15
2022-12-27T12:44:45.908Z,68.53
2022-12-27T12:47:29.378Z,68.01
2022-12-27T12:50:18.744Z,68.42
2022-12-27T12:53:01.296Z,68.81
2022-12-27T12:55:45.216Z,68.14
2022-12-27T12:58:25.539Z,68.58
2022-12-27T13:01:14.545Z,68.69
2022-12-27T13:03:59.972Z,68.28
2022-12-27T13:07:07.909Z,67.62
2022-12-27T13:09:50.868Z,68.04
2022-12-27T13:12:26.908Z,67.92
2022-12-27T13:15:20.428Z,67.67
2022-12-27T13:18:01.017Z,68.13
2022-12-27T13:20:54.727Z,68.15
2022-12-27T13:23:35.280Z,67.80
2022-12-27T13:26:15.538Z,68.65
2022-12-27T13:29:10.916Z,67.89
2022-12-27T13:31:47.736Z,66.84
2022-12-27T13:34:30.428Z,67.14
2022-12-27T13:37:13.834Z,67.06
2022-12-27T13:40:02.346Z,66.99
2022-12-27T13:42:48.988Z,67.36
2022-12-27T13:45:46.307Z,66.86
2022-12-27T13:48:39.541Z,67.15
2022-12-27T13:51:20.307Z,66.96
2022-12-27T13:54:09.574Z,67.02
2022-12-27T13:56:54.815Z,67.00
2022-12-27T13:59:44.554Z,67.45
2022-12-27T14:02:34.650Z,66.40
2022-12-27T14:05:42.344Z,66.36
2022-12-27T14:08:21.885Z,66.91
2022-12-27T14:10:55.339Z,67.83
2022-12-27T14:13:34.580Z,67.30
2022-12-27T14:16:30.604Z,66.44
2022-12-27T14:19:33.482Z,66.83
2022-12-27T14:22:30.405Z,67.33
2022-12-27T14:25:38.375Z,66.98
2022-12-27T14:28:31.340Z,67.52
2022-12-27T14:34:20.828Z,67.23
2022-12-27T14:37:08.514Z,67.11
2022-12-27T14:40:15.527Z,68.12
2022-12-27T14:43:18.842Z,67.37
2022-12-27T14:46:14.421Z,67.37
2022-12-27T14:49:27.006Z,66.91
2022-12-27T14:52:33.565Z,66.55
2022-12-27T14:55:37.406Z,66.75
2022-12-27T14:58:29.029Z,67.87
2022-12-27T15:01:06.136Z,67.15
2022-12-27T15:04:02.328Z,67.18
2022-12-27T15:06:49.450Z,67.06
2022-12-27T15:09:29.780Z,67.72
2022-12-27T15:12:14.050Z,67.17
2022-12-27T15:14:55.081Z,67.51
2022-12-27T15:17:36.193Z,68.22
2022-12-27T15:20:17.708Z,67.42
2022-12-27T15:23:05.565Z,67.21
2022-12-27T15:25:48.311Z,67.83
2022-12-27T15:28:23.461Z,68.33
2022-12-27T15:30:57.974Z,68.00
2022-12-27T15:33:35.039Z,67.65
2022-12-27T15:36:07.230Z,68.12
2022-12-27T15:38:53.585Z,68.25
2022-12-27T15:41:36.170Z,67.46
2022-12-27T15:44:30.016Z,67.92
2022-12-27T15:47:41.681Z,68.24
2022-12-27T15:50:35.614Z,67.61
2022-12-27T15:53:17.985Z,68.01
2022-12-27T15:56:07.373Z,68.18
2022-12-27T15:58:35.544Z,68.80
2022-12-27T16:01:29.177Z,68.48
2022-12-27T16:03:59.439Z,68.67
2022-12-27T16:06:50.180Z,68.81
2022-12-27T16:09:22.627Z,68.69
2022-12-27T16:12:04.510Z,69.13
2022-12-27T16:14:36.066Z,68.81
2022-12-27T16:17:23.790Z,69.25
2022-12-27T16:20:11.718Z,68.95
2022-12-27T16:22:42.899Z,69.48
2022-12-27T16:25:30.948Z,69.33
2022-12-27T16:28:05.178Z,69.35
2022-12-27T16:30:45.986Z,69.57
2022-12-27T16:33:34.235Z,69.28
2022-12-27T16:36:21.274Z,69.94
2022-12-27T16:39:25.748Z,69.94
2022-12-27T16:42:02.459Z,69.46
2022-12-27T16:44:47.495Z,69.55
2022-12-27T16:47:34.681Z,69.70
2022-12-27T16:50:30.010Z,69.94
2022-12-27T16:53:09.335Z,69.78
2022-12-27T16:56:15.288Z,70.26
2022-12-27T16:58:44.420Z,70.48
2022-12-27T17:01:44.915Z,70.61
2022-12-27T17:04:51.989Z,70.73
2022-12-27T17:07:49.994Z,70.59
2022-12-27T17:10:44.027Z,71.11
2022-12-27T17:13:17.385Z,70.79
2022-12-27T17:15:54.497Z,71.02
2022-12-27T17:18:29.479Z,70.85
2022-12-27T17:21:03.389Z,70.87
2022-12-27T17:23:38.565Z,70.65
2022-12-27T17:26:27.081Z,70.86
2022-12-27T17:29:03.879Z,70.98
2022-12-27T17:31:43.686Z,71.13
2022-12-27T17:34:18.841Z,71.04
2022-12-27T17:37:01.136Z,71.20
2022-12-27T17:39:52.039Z,71.20
2022-12-27T17:42:47.430Z,71.33
2022-12-27T17:45:31.122Z,71.56
2022-12-27T17:48:16.113Z,71.47
2022-12-27T17:50:45.530Z,71.54
2022-12-27T17:53:37.013Z,71.55
2022-12-27T17:56:37.495Z,71.46
2022-12-27T17:59:12.040Z,71.67
2022-12-27T18:01:47.229Z,71.81
2022-12-27T18:07:11.379Z,71.75
2022-12-27T18:09:45.035Z,72.03
2022-12-27T18:12:20.537Z,71.92
2022-12-27T18:14:55.041Z,72.05
2022-12-27T18:17:29.268Z,72.02
2022-12-27T18:19:58.912Z,72.45
2022-12-27T18:22:29.890Z,72.05
2022-12-27T18:25:04.434Z,72.37
2022-12-27T18:27:39.550Z,72.90
2022-12-27T18:30:15.676Z,72.34
2022-12-27T18:32:51.576Z,72.89
2022-12-27T18:35:25.036Z,72.56
2022-12-27T18:37:53.447Z,72.62
2022-12-27T18:40:23.325Z,72.82
2022-12-27T18:42:53.795Z,72.84
2022-12-27T18:45:26.588Z,72.61
2022-12-27T18:47:55.998Z,72.78
2022-12-27T18:50:26.029Z,72.67
2022-12-27T18:53:02.387Z,72.91
2022-12-27T18:55:34.914Z,73.38
2022-12-27T18:58:20.593Z,73.10
2022-12-27T19:00:51.488Z,72.80
2022-12-27T19:03:21.497Z,72.98
2022-12-27T19:06:01.234Z,72.86
2022-12-27T19:08:34.826Z,73.45
2022-12-27T19:11:03.149Z,73.33
2022-12-27T19:13:44.118Z,73.12
2022-12-27T19:16:24.376Z,73.20
2022-12-27T19:18:58.472Z,72.90
2022-12-27T19:21:32.875Z,73.18
2022-12-27T19:24:30.445Z,73.30
2022-12-27T19:27:00.781Z,73.35
2022-12-27T19:29:42.487Z,73.17
2022-12-27T19:32:11.292Z,73.53
2022-12-27T19:34:44.418Z,73.42
2022-12-27T19:37:16.308Z,73.30
2022-12-27T19:39:49.904Z,73.13
2022-12-27T19:42:28.429Z,73.45
2022-12-27T19:45:07.118Z,73.40
2022-12-27T19:47:39.330Z,73.22
2022-12-27T19:50:15.781Z,73.21
2022-12-27T19:52:50.890Z,73.22
2022-12-27T19:55:31.297Z,73.46
2022-12-27T19:58:04.495Z,73.17
2022-12-27T20:03:42.650Z,73.19
2022-12-27T20:06:22.759Z,73.08
2022-12-27T20:13:29.492Z,73.39
2022-12-27T20:16:02.867Z,73.59
2022-12-27T20:18:31.773Z,73.51
2022-12-27T20:21:00.965Z,73.47
2022-12-27T20:23:28.951Z,73.38
2022-12-27T20:28:43.912Z,73.58
2022-12-27T20:31:16.433Z,74.09
2022-12-27T20:33:53.183Z,74.41
2022-12-27T20:36:24.901Z,74.14
2022-12-27T20:39:02.760Z,74.35
2022-12-27T20:41:34.024Z,74.29
2022-12-27T20:44:02.360Z,74.13
2022-12-27T20:46:38.670Z,74.54
2022-12-27T20:49:07.975Z,74.58
2022-12-27T20:51:37.571Z,74.24
2022-12-27T20:54:07.440Z,74.31
2022-12-27T20:56:37.961Z,74.50
2022-12-27T21:02:08.379Z,74.69
2022-12-27T21:07:52.217Z,75.43
2022-12-27T21:10:24.781Z,74.64
2022-12-27T21:12:55.931Z,75.00
2022-12-27T21:15:38.861Z,75.16
2022-12-27T21:18:16.924Z,74.89
2022-12-27T21:20:47.680Z,75.15
2022-12-27T21:23:16.881Z,75.02
2022-12-27T21:26:06.299Z,75.43
2022-12-27T21:28:56.221Z,75.80
2022-12-27T21:31:26.724Z,75.58
2022-12-27T21:34:07.674Z,75.72
2022-12-27T21:39:34.306Z,75.79
2022-12-27T21:42:14.575Z,76.01
2022-12-27T21:47:59.668Z,75.86
2022-12-27T21:50:37.216Z,76.00
2022-12-27T21:53:06.199Z,76.38
2022-12-27T21:55:35.246Z,76.56
2022-12-27T21:58:06.889Z,76.66
2022-12-27T22:00:35.705Z,76.27
2022-12-27T22:03:04.964Z,76.74
2022-12-27T22:05:35.590Z,76.36
2022-12-27T22:08:05.926Z,76.09
2022-12-27T22:10:35.076Z,76.59
2022-12-27T22:13:04.860Z,77.03
2022-12-27T22:15:32.942Z,77.46
2022-12-27T22:18:00.635Z,77.13
2022-12-27T22:20:28.208Z,76.68
2022-12-27T22:22:57.146Z,76.78
2022-12-27T22:25:24.688Z,76.64
2022-12-27T22:27:52.260Z,77.37
2022-12-27T22:30:19.855Z,76.80
2022-12-27T22:32:47.405Z,76.96
2022-12-27T22:35:15.009Z,77.23
2022-12-27T22:37:42.569Z,77.07
2022-12-27T22:40:30.592Z,77.52
2022-12-27T22:42:59.075Z,77.39
2022-12-27T22:45:26.964Z,77.45
2022-12-27T22:47:54.935Z,77.58
2022-12-27T22:50:23.189Z,77.39
2022-12-27T22:52:50.928Z,77.75
2022-12-27T22:55:21.437Z,77.73
2022-12-27T22:57:49.062Z,77.43
2022-12-27T23:00:19.744Z,77.74
2022-12-27T23:02:47.745Z,77.99
2022-12-27T23:05:15.332Z,77.74
2022-12-27T23:08:04.314Z,77.89
2022-12-27T23:10:31.956Z,77.29
2022-12-27T23:12:59.467Z,78.33
2022-12-27T23:15:27.007Z,78.00
2022-12-27T23:17:54.436Z,78.59
2022-12-27T23:20:21.976Z,78.68
2022-12-27T23:22:49.495Z,78.76
2022-12-27T23:25:17.232Z,78.49
2022-12-27T23:27:46.075Z,78.82
2022-12-27T23:30:15.121Z,78.51
2022-12-27T23:32:42.692Z,78.91
2022-12-27T23:35:10.462Z,78.35
2022-12-27T23:37:38.309Z,78.55
2022-12-27T23:40:07.143Z,78.65
2022-12-27T23:42:35.971Z,78.61
2022-12-27T23:45:05.171Z,78.56
2022-12-27T23:47:32.735Z,78.44
2022-12-27T23:50:00.551Z,78.31
2022-12-27T23:52:28.101Z,78.52
2022-12-27T23:54:55.721Z,78.33
2022-12-27T23:57:23.273Z,78.35
2022-12-27T23:59:51.619Z,78.39
